Time;durP1;ratioP1;P1;durP2;ratioP2;P2;SDS_P1;SDS_P2;PMS_P1;PMS_P2;Temp;Humidity;BMP_temperature;BMP_pressure;BME280_temperature;BME280_humidity;BME280_pressure;Samples;Min_cycle;Max_cycle;Signal;HPM_P1;HPM_P2
2023/07/07 00:02:24;;;;;;;5.10;2.73;;;17.80;99.90;;;;;;5010281;28;20203;-59
2023/07/07 00:04:52;;;;;;;2.97;2.50;;;17.70;99.90;;;;;;5009846;28;20358;-59
2023/07/07 00:07:20;;;;;;;3.57;3.07;;;17.80;99.90;;;;;;5008400;28;20755;-59
2023/07/07 00:09:47;;;;;;;3.67;2.60;;;17.70;99.90;;;;;;5010442;28;20206;-59
2023/07/07 00:12:16;;;;;;;4.90;3.57;;;17.70;99.90;;;;;;5012916;28;20568;-59
2023/07/07 00:14:43;;;;;;;6.57;2.40;;;17.70;99.90;;;;;;5015125;28;20199;-59
2023/07/07 00:17:11;;;;;;;4.40;3.27;;;17.70;99.90;;;;;;5014587;28;20258;-59
2023/07/07 00:19:39;;;;;;;3.00;2.70;;;17.70;99.90;;;;;;5010246;28;20348;-59
2023/07/07 00:22:07;;;;;;;3.77;2.90;;;17.60;99.90;;;;;;5013391;28;20210;-60
2023/07/07 00:24:35;;;;;;;3.63;2.63;;;17.70;99.90;;;;;;5014512;28;20705;-59
2023/07/07 00:27:02;;;;;;;3.60;2.60;;;17.70;99.90;;;;;;5014536;28;20301;-59
2023/07/07 00:29:29;;;;;;;2.83;2.40;;;17.60;99.90;;;;;;5014774;28;20257;-59
2023/07/07 00:31:56;;;;;;;2.53;2.33;;;17.60;99.90;;;;;;5014621;28;20203;-59
2023/07/07 00:34:23;;;;;;;3.17;2.47;;;17.50;99.90;;;;;;5012396;28;20269;-60
2023/07/07 00:36:52;;;;;;;2.60;2.17;;;17.60;99.90;;;;;;5014376;28;20292;-59
2023/07/07 00:39:19;;;;;;;3.43;2.40;;;17.60;99.90;;;;;;5014376;28;20265;-59
2023/07/07 00:41:46;;;;;;;2.53;2.33;;;17.60;99.90;;;;;;5014472;28;20203;-60
2023/07/07 00:44:13;;;;;;;3.30;3.03;;;17.60;99.90;;;;;;5014143;28;20273;-59
2023/07/07 00:46:40;;;;;;;2.57;2.37;;;17.60;99.90;;;;;;5013236;28;20779;-59
2023/07/07 00:49:12;;;;;;;4.70;4.20;;;17.60;99.90;;;;;;5014237;28;20673;-59
2023/07/07 00:51:44;;;;;;;2.53;2.33;;;17.60;99.90;;;;;;5013527;28;20557;-59
2023/07/07 00:54:18;;;;;;;3.57;2.73;;;17.60;99.90;;;;;;5009837;28;20666;-59
2023/07/07 00:56:50;;;;;;;2.70;2.47;;;17.60;99.90;;;;;;5014064;28;20223;-59
2023/07/07 00:59:20;;;;;;;2.93;1.97;;;17.50;99.90;;;;;;5013255;28;20211;-59
2023/07/07 01:01:47;;;;;;;3.37;3.07;;;17.50;99.90;;;;;;5013850;28;20265;-59
2023/07/07 01:04:18;;;;;;;3.03;2.60;;;17.40;99.90;;;;;;5013756;28;20370;-59
2023/07/07 01:06:49;;;;;;;2.70;2.50;;;17.40;99.90;;;;;;5012904;28;20689;-59
2023/07/07 01:09:18;;;;;;;3.83;2.43;;;17.40;99.90;;;;;;5013035;28;20207;-60
2023/07/07 01:11:47;;;;;;;3.13;2.83;;;17.40;99.90;;;;;;5012799;28;20281;-59
2023/07/07 01:14:18;;;;;;;5.63;2.23;;;17.40;99.90;;;;;;5013721;28;20282;-58
2023/07/07 01:16:55;;;;;;;2.47;2.27;;;17.30;99.90;;;;;;5013705;28;20277;-59
2023/07/07 01:19:50;;;;;;;4.43;3.27;;;17.30;99.90;;;;;;5013213;28;20261;-59
2023/07/07 01:22:42;;;;;;;2.97;2.13;;;17.20;99.90;;;;;;4993636;28;20677;-58
2023/07/07 01:25:23;;;;;;;2.20;2.10;;;17.30;99.90;;;;;;5008517;28;20222;-59
2023/07/07 01:28:19;;;;;;;2.80;2.60;;;17.20;99.90;;;;;;5013593;28;20739;-59
2023/07/07 01:30:51;;;;;;;2.10;1.70;;;17.30;99.90;;;;;;5011917;28;20294;-59
2023/07/07 01:33:23;;;;;;;3.70;2.70;;;17.30;99.90;;;;;;5013385;28;20673;-59
2023/07/07 01:35:50;;;;;;;2.07;1.87;;;17.30;99.90;;;;;;5013536;28;20218;-59
2023/07/07 01:38:34;;;;;;;3.80;2.23;;;17.20;99.90;;;;;;5012605;28;20201;-59
2023/07/07 01:41:08;;;;;;;2.87;2.40;;;17.10;99.90;;;;;;5011598;28;20207;-59
2023/07/07 01:43:43;;;;;;;2.63;2.43;;;17.10;99.90;;;;;;5012689;28;20314;-59
2023/07/07 01:46:21;;;;;;;2.47;2.23;;;17.10;99.90;;;;;;5013218;28;20226;-60
2023/07/07 01:48:53;;;;;;;2.87;2.00;;;17.00;99.90;;;;;;5012300;28;20590;-59
2023/07/07 01:51:26;;;;;;;4.33;2.70;;;17.00;99.90;;;;;;5013124;28;20580;-59
2023/07/07 01:53:54;;;;;;;2.50;2.37;;;17.00;99.90;;;;;;5012953;28;20203;-59
2023/07/07 01:56:25;;;;;;;6.97;2.67;;;17.00;99.90;;;;;;5011736;28;20293;-59
2023/07/07 01:58:52;;;;;;;2.70;2.33;;;17.10;99.90;;;;;;5012955;28;20203;-59
2023/07/07 02:01:21;;;;;;;2.87;2.37;;;17.10;99.90;;;;;;5012401;28;20254;-59
2023/07/07 02:03:48;;;;;;;4.83;3.83;;;17.00;99.90;;;;;;5012629;28;20636;-59
2023/07/07 02:06:15;;;;;;;4.10;2.33;;;17.00;99.90;;;;;;5013081;28;20227;-59
2023/07/07 02:08:44;;;;;;;2.60;2.40;;;17.00;99.90;;;;;;5010490;28;20261;-59
2023/07/07 02:11:11;;;;;;;2.97;1.87;;;17.10;99.90;;;;;;5005237;28;20703;-59
2023/07/07 02:13:39;;;;;;;4.87;2.80;;;17.20;99.90;;;;;;5011812;28;20673;-60
2023/07/07 02:16:07;;;;;;;2.13;1.93;;;17.20;99.90;;;;;;5012773;28;20265;-58
2023/07/07 02:18:37;;;;;;;2.30;1.83;;;17.20;99.90;;;;;;5012859;28;20294;-59
2023/07/07 02:21:05;;;;;;;3.57;1.67;;;17.20;99.90;;;;;;5013105;28;20262;-59
2023/07/07 02:23:32;;;;;;;3.17;2.60;;;17.20;99.90;;;;;;5011323;28;20616;-59
2023/07/07 02:25:59;;;;;;;2.33;2.07;;;17.10;99.90;;;;;;5011313;28;20266;-59
2023/07/07 02:28:26;;;;;;;2.97;2.70;;;17.10;99.90;;;;;;5012542;28;20290;-59
2023/07/07 02:30:54;;;;;;;2.60;1.50;;;17.10;99.90;;;;;;5012633;28;20602;-59
2023/07/07 02:33:31;;;;;;;1.47;1.30;;;17.10;99.90;;;;;;5012392;28;20280;-58
2023/07/07 02:36:02;;;;;;;3.20;1.87;;;17.00;99.90;;;;;;5011492;28;20364;-59
2023/07/07 02:38:29;;;;;;;3.73;2.57;;;16.90;99.90;;;;;;5011719;28;20215;-58
2023/07/07 02:40:57;;;;;;;3.77;2.17;;;16.90;99.90;;;;;;5011365;28;20240;-58
2023/07/07 02:43:24;;;;;;;3.20;2.03;;;16.80;99.90;;;;;;5012288;28;20249;-59
2023/07/07 02:45:51;;;;;;;5.70;2.43;;;16.80;99.90;;;;;;5012175;28;20227;-59
2023/07/07 02:48:20;;;;;;;2.10;1.90;;;16.80;99.90;;;;;;5012185;28;20681;-59
2023/07/07 02:50:53;;;;;;;2.27;1.90;;;16.80;99.90;;;;;;5011052;28;20286;-59
2023/07/07 02:53:22;;;;;;;4.33;2.67;;;16.70;99.90;;;;;;5012049;28;20230;-59
2023/07/07 02:55:49;;;;;;;5.13;2.60;;;16.70;99.90;;;;;;5010775;28;20309;-58
2023/07/07 02:58:16;;;;;;;5.40;2.87;;;16.70;99.90;;;;;;5011701;28;20281;-59
2023/07/07 03:00:44;;;;;;;5.37;3.37;;;16.60;99.90;;;;;;5012027;28;20207;-59
2023/07/07 03:03:11;;;;;;;3.47;2.33;;;16.70;99.90;;;;;;5010719;28;20237;-59
2023/07/07 03:05:38;;;;;;;4.40;2.70;;;16.70;99.90;;;;;;5011690;28;20223;-59
2023/07/07 03:08:05;;;;;;;2.60;2.40;;;16.60;99.90;;;;;;5012024;28;20254;-59
2023/07/07 03:10:34;;;;;;;2.67;2.30;;;16.60;99.90;;;;;;5012034;28;20845;-58
2023/07/07 03:13:01;;;;;;;2.53;2.33;;;16.60;99.90;;;;;;5010298;28;20238;-58
2023/07/07 03:15:39;;;;;;;3.37;2.53;;;16.50;99.90;;;;;;5011794;28;20215;-59
2023/07/07 03:18:07;;;;;;;3.67;2.80;;;16.50;99.90;;;;;;5011188;28;20671;-59
2023/07/07 03:20:35;;;;;;;3.00;2.17;;;16.50;99.90;;;;;;5011907;28;20278;-59
2023/07/07 03:23:02;;;;;;;3.40;1.83;;;16.50;99.90;;;;;;5011757;28;20207;-59
2023/07/07 03:25:30;;;;;;;2.97;2.73;;;16.40;99.90;;;;;;5011478;28;20754;-58
2023/07/07 03:27:59;;;;;;;4.23;2.40;;;16.50;99.90;;;;;;5007530;28;20212;-59
2023/07/07 03:30:27;;;;;;;2.87;2.63;;;16.50;99.90;;;;;;5009921;28;20295;-58
2023/07/07 03:32:54;;;;;;;4.67;2.70;;;16.40;99.90;;;;;;5011405;28;20639;-59
2023/07/07 03:35:21;;;;;;;3.70;2.40;;;16.40;99.90;;;;;;5011853;28;20223;-58
2023/07/07 03:37:48;;;;;;;2.50;2.30;;;16.40;99.90;;;;;;5011614;28;20643;-58
2023/07/07 03:40:15;;;;;;;2.13;1.93;;;16.30;99.90;;;;;;5011611;28;20253;-59
2023/07/07 03:42:42;;;;;;;2.07;1.70;;;16.30;99.90;;;;;;5010257;28;20203;-59
2023/07/07 03:45:11;;;;;;;2.20;2.00;;;16.30;99.90;;;;;;5010368;28;20697;-59
2023/07/07 03:47:38;;;;;;;2.20;2.10;;;16.30;99.90;;;;;;5014185;28;20615;-59
2023/07/07 03:50:07;;;;;;;2.30;1.73;;;16.40;99.90;;;;;;5015611;28;20211;-58
2023/07/07 03:52:36;;;;;;;1.70;1.60;;;16.40;99.90;;;;;;5015237;28;20243;-58
2023/07/07 03:55:03;;;;;;;2.07;1.77;;;16.40;99.90;;;;;;5013320;28;20289;-59
2023/07/07 03:57:30;;;;;;;3.87;2.20;;;16.40;99.90;;;;;;5015204;28;20195;-60
2023/07/07 03:59:57;;;;;;;2.20;1.80;;;16.40;99.90;;;;;;5015465;28;20257;-59
2023/07/07 04:02:25;;;;;;;2.33;1.80;;;16.50;99.90;;;;;;5013203;28;20203;-58
2023/07/07 04:04:52;;;;;;;3.27;2.13;;;16.50;99.90;;;;;;5014783;28;20219;-60
2023/07/07 04:07:19;;;;;;;2.20;1.70;;;16.60;99.90;;;;;;5014463;28;20735;-59
2023/07/07 04:09:46;;;;;;;3.03;1.93;;;16.60;99.90;;;;;;5013615;28;20584;-60
2023/07/07 04:12:13;;;;;;;2.70;1.27;;;16.60;99.90;;;;;;5015529;28;20289;-59
2023/07/07 04:14:40;;;;;;;4.80;2.17;;;16.60;99.90;;;;;;5014256;28;20199;-58
2023/07/07 04:17:07;;;;;;;2.60;2.00;;;16.60;99.90;;;;;;5014174;28;20211;-58
2023/07/07 04:19:35;;;;;;;3.07;1.77;;;16.60;99.90;;;;;;5014877;28;20255;-58
2023/07/07 04:22:02;;;;;;;3.67;2.07;;;16.70;99.90;;;;;;5031108;28;20199;-59
2023/07/07 04:24:29;;;;;;;3.03;1.97;;;16.70;99.90;;;;;;5034438;28;20218;-59
2023/07/07 04:26:56;;;;;;;2.60;2.20;;;16.80;99.90;;;;;;5034612;28;20296;-58
2023/07/07 04:29:23;;;;;;;3.70;2.03;;;16.90;99.90;;;;;;5034769;28;20664;-59
2023/07/07 04:31:50;;;;;;;2.17;1.60;;;16.90;99.90;;;;;;5034836;28;20631;-59
2023/07/07 04:34:17;;;;;;;3.23;1.50;;;17.00;99.90;;;;;;5016296;28;20261;-59
2023/07/07 04:36:46;;;;;;;3.00;2.10;;;17.10;99.90;;;;;;5014568;28;20227;-59
2023/07/07 04:39:13;;;;;;;4.83;2.07;;;17.10;99.90;;;;;;5014788;28;20215;-58
2023/07/07 04:41:40;;;;;;;3.13;1.80;;;17.10;99.90;;;;;;5014981;28;20269;-59
2023/07/07 04:44:07;;;;;;;2.57;2.37;;;17.20;99.90;;;;;;5014660;28;20211;-59
2023/07/07 04:46:36;;;;;;;1.63;1.53;;;17.20;99.90;;;;;;5014889;28;20289;-58
2023/07/07 04:49:06;;;;;;;5.13;2.10;;;17.30;99.90;;;;;;5006397;28;20207;-59
2023/07/07 04:51:34;;;;;;;2.20;1.90;;;17.30;99.90;;;;;;5014177;28;20207;-59
2023/07/07 04:54:03;;;;;;;3.53;2.07;;;17.40;99.90;;;;;;5014186;28;20203;-59
2023/07/07 04:56:30;;;;;;;2.30;1.90;;;17.40;99.90;;;;;;5014468;28;20235;-59
2023/07/07 04:58:58;;;;;;;3.30;1.70;;;17.50;99.90;;;;;;5013026;28;20203;-58
2023/07/07 05:01:27;;;;;;;2.10;1.70;;;17.60;99.90;;;;;;5014251;28;20203;-59
2023/07/07 05:03:56;;;;;;;3.23;2.40;;;17.70;99.90;;;;;;5013068;28;20207;-59
2023/07/07 05:06:25;;;;;;;2.97;2.17;;;17.80;99.90;;;;;;5014055;28;20223;-59
2023/07/07 05:08:53;;;;;;;5.17;2.07;;;17.90;99.90;;;;;;5013935;28;20635;-59
2023/07/07 05:11:23;;;;;;;2.40;2.07;;;18.00;99.90;;;;;;5014359;28;20199;-60
2023/07/07 05:13:52;;;;;;;3.63;2.30;;;18.20;99.90;;;;;;5013734;28;20580;-59
2023/07/07 05:16:21;;;;;;;1.97;1.83;;;18.40;99.90;;;;;;5006186;28;20228;-58
2023/07/07 05:18:49;;;;;;;3.70;2.90;;;18.70;99.90;;;;;;5009963;28;20206;-59
2023/07/07 05:21:18;;;;;;;4.93;2.13;;;19.20;99.90;;;;;;5010770;28;20226;-59
2023/07/07 05:23:45;;;;;;;1.60;1.50;;;19.90;99.90;;;;;;5010422;28;20669;-59
2023/07/07 05:26:12;;;;;;;5.53;1.60;;;20.40;99.90;;;;;;5012460;28;20219;-59
2023/07/07 05:28:41;;;;;;;1.80;1.70;;;21.20;99.90;;;;;;5007171;28;20203;-58
2023/07/07 05:31:08;;;;;;;1.97;1.87;;;22.00;99.90;;;;;;5008045;28;20636;-59
2023/07/07 05:33:37;;;;;;;4.47;2.03;;;22.50;99.90;;;;;;5004149;28;20204;-59
2023/07/07 05:36:08;;;;;;;2.90;1.40;;;23.00;99.90;;;;;;4997789;28;20645;-59
2023/07/07 05:38:37;;;;;;;2.60;1.50;;;23.50;99.90;;;;;;4996703;28;20274;-59
2023/07/07 05:41:04;;;;;;;3.70;1.97;;;23.80;99.90;;;;;;4996521;28;20228;-59
2023/07/07 05:43:31;;;;;;;2.97;1.87;;;24.30;99.90;;;;;;5011181;28;20199;-59
2023/07/07 05:46:01;;;;;;;3.77;1.90;;;25.00;99.90;;;;;;5006584;28;20696;-61
2023/07/07 05:48:29;;;;;;;2.80;2.60;;;25.40;99.90;;;;;;4999928;28;20609;-61
2023/07/07 05:50:58;;;;;;;1.97;1.77;;;25.60;99.90;;;;;;4992806;28;20223;-59
2023/07/07 05:53:25;;;;;;;1.43;1.40;;;25.80;99.90;;;;;;4992640;28;20203;-62
2023/07/07 05:55:54;;;;;;;2.80;2.13;;;26.30;99.90;;;;;;4992637;28;20227;-58
2023/07/07 05:58:21;;;;;;;2.37;2.00;;;26.70;99.90;;;;;;5002508;28;20677;-61
2023/07/07 06:00:48;;;;;;;2.03;1.90;;;27.00;99.90;;;;;;5004255;28;20200;-59
2023/07/07 06:03:16;;;;;;;2.87;2.63;;;27.10;99.90;;;;;;5007371;28;20200;-62
2023/07/07 06:05:44;;;;;;;5.10;1.77;;;27.70;99.90;;;;;;4992399;28;20273;-59
2023/07/07 06:08:11;;;;;;;4.97;2.00;;;27.80;99.90;;;;;;5008916;28;20261;-59
2023/07/07 06:10:38;;;;;;;2.15;2.00;;;27.80;99.90;;;;;;5010133;28;20665;-59
2023/07/07 06:13:05;;;;;;;1.73;1.57;;;27.50;99.90;;;;;;5010621;28;20195;-61
2023/07/07 06:15:32;;;;;;;1.87;1.30;;;27.60;99.90;;;;;;5006060;28;20265;-62
2023/07/07 06:17:59;;;;;;;2.03;1.52;;;28.00;99.90;;;;;;4992240;28;20741;-61
2023/07/07 06:20:27;;;;;;;2.72;1.55;;;27.80;99.90;;;;;;4992902;28;20254;-62
2023/07/07 06:22:57;;;;;;;2.00;1.90;;;27.60;99.80;;;;;;4991982;28;20319;-59
2023/07/07 06:25:24;;;;;;;2.40;2.08;;;27.50;99.90;;;;;;5010442;28;20822;-61
2023/07/07 06:27:51;;;;;;;2.65;1.70;;;27.80;99.90;;;;;;5008207;28;20695;-61
2023/07/07 06:30:18;;;;;;;12.10;3.40;;;28.00;99.90;;;;;;5005209;28;20665;-61
2023/07/07 06:32:45;;;;;;;3.42;2.13;;;27.70;99.70;;;;;;5005653;28;20654;-62
2023/07/07 06:35:13;;;;;;;1.75;1.65;;;28.10;99.80;;;;;;5007069;28;20215;-61
2023/07/07 06:37:41;;;;;;;2.88;2.30;;;28.00;99.60;;;;;;5006231;28;20241;-62
2023/07/07 06:40:10;;;;;;;4.05;2.03;;;28.20;98.60;;;;;;4991357;28;20235;-60
2023/07/07 06:42:37;;;;;;;2.33;2.13;;;28.70;98.60;;;;;;5009915;28;20283;-60
2023/07/07 06:45:04;;;;;;;2.22;1.73;;;29.00;98.20;;;;;;5009229;28;20561;-59
2023/07/07 06:47:37;;;;;;;1.95;1.85;;;29.60;97.60;;;;;;4999442;28;20207;-62
2023/07/07 06:50:05;;;;;;;1.85;1.75;;;29.20;96.90;;;;;;5003155;28;20258;-61
2023/07/07 06:52:35;;;;;;;2.40;2.25;;;29.10;97.30;;;;;;5012179;28;20214;-61
2023/07/07 06:55:03;;;;;;;5.50;1.88;;;29.70;97.50;;;;;;5010919;28;20235;-61
2023/07/07 06:57:30;;;;;;;6.65;2.42;;;29.40;97.40;;;;;;5012334;28;20346;-61
2023/07/07 06:59:57;;;;;;;3.50;2.45;;;29.60;96.90;;;;;;5011882;28;20199;-61
2023/07/07 07:02:24;;;;;;;3.40;2.35;;;30.10;96.60;;;;;;5011637;28;20226;-62
2023/07/07 07:04:51;;;;;;;4.57;2.20;;;29.80;96.50;;;;;;5002718;28;20650;-62
2023/07/07 07:07:18;;;;;;;1.75;1.65;;;30.30;95.80;;;;;;5004839;28;20643;-60
2023/07/07 07:09:45;;;;;;;2.60;2.40;;;30.40;95.40;;;;;;5009770;28;20627;-60
2023/07/07 07:12:14;;;;;;;2.63;2.42;;;30.20;93.90;;;;;;5005999;28;20550;-60
2023/07/07 07:14:41;;;;;;;3.50;2.60;;;29.80;96.00;;;;;;5009350;28;20246;-59
2023/07/07 07:17:08;;;;;;;2.20;2.10;;;30.10;95.10;;;;;;5009714;28;20326;-60
2023/07/07 07:19:35;;;;;;;5.85;2.95;;;30.40;94.90;;;;;;5009667;28;20665;-60
2023/07/07 07:22:02;;;;;;;1.90;1.77;;;30.40;94.00;;;;;;5012765;28;20242;-59
2023/07/07 07:24:29;;;;;;;2.15;2.05;;;30.80;95.30;;;;;;5009803;28;20202;-60
2023/07/07 07:26:56;;;;;;;1.90;1.80;;;30.70;93.10;;;;;;5010063;28;20235;-60
2023/07/07 07:29:24;;;;;;;2.10;2.00;;;31.10;93.50;;;;;;5005841;28;20207;-60
2023/07/07 07:31:51;;;;;;;2.40;2.00;;;31.40;91.90;;;;;;5005915;28;20255;-60
2023/07/07 07:34:24;;;;;;;2.53;2.15;;;31.40;94.40;;;;;;5010563;28;20294;-60
2023/07/07 07:36:52;;;;;;;2.42;2.15;;;31.10;91.00;;;;;;5000984;28;20219;-60
2023/07/07 07:39:20;;;;;;;2.13;1.95;;;30.90;91.40;;;;;;4994669;28;20633;-60
2023/07/07 07:41:49;;;;;;;4.00;2.25;;;30.80;91.90;;;;;;5004874;28;20214;-60
2023/07/07 07:44:17;;;;;;;7.57;2.03;;;31.10;93.10;;;;;;5002442;28;20258;-59
2023/07/07 07:46:46;;;;;;;4.63;2.42;;;31.00;92.60;;;;;;5002416;28;20228;-59
2023/07/07 07:49:14;;;;;;;3.85;1.80;;;31.10;93.00;;;;;;4996558;28;20254;-60
2023/07/07 07:51:41;;;;;;;2.38;1.77;;;31.30;91.60;;;;;;5008566;28;20195;-61
2023/07/07 07:54:10;;;;;;;5.28;2.60;;;31.30;90.90;;;;;;5009750;28;20194;-60
2023/07/07 07:56:38;;;;;;;3.72;1.92;;;31.30;92.80;;;;;;5030745;28;20317;-61
2023/07/07 07:59:06;;;;;;;2.05;1.75;;;31.20;90.20;;;;;;5005132;28;20735;-60
2023/07/07 08:01:33;;;;;;;1.75;1.50;;;30.60;91.10;;;;;;5008188;28;20210;-59
2023/07/07 08:04:03;;;;;;;2.42;2.00;;;31.10;94.30;;;;;;5006276;28;20459;-66
2023/07/07 08:06:30;;;;;;;6.00;2.47;;;31.70;90.70;;;;;;5010010;28;20235;-66
2023/07/07 08:08:57;;;;;;;4.93;2.10;;;31.80;91.40;;;;;;5010267;28;20207;-60
2023/07/07 08:11:48;;;;;;;3.30;1.88;;;31.80;88.10;;;;;;5007291;28;20258;-60
2023/07/07 08:14:17;;;;;;;3.65;2.15;;;31.70;91.00;;;;;;5001678;28;20204;-60
2023/07/07 08:16:46;;;;;;;2.85;2.47;;;32.20;90.30;;;;;;5007992;28;20881;-60
2023/07/07 08:19:15;;;;;;;3.50;2.10;;;32.00;85.70;;;;;;5009199;28;20199;-60
2023/07/07 08:21:42;;;;;;;2.28;2.10;;;32.20;88.80;;;;;;5009661;28;20199;-60
2023/07/07 08:24:09;;;;;;;4.90;2.42;;;32.70;88.10;;;;;;5009613;28;20604;-60
2023/07/07 08:26:36;;;;;;;2.08;1.80;;;33.00;90.40;;;;;;5009802;28;20693;-60
2023/07/07 08:29:03;;;;;;;3.60;1.95;;;32.90;86.90;;;;;;5010976;28;20199;-60
2023/07/07 08:31:30;;;;;;;2.60;2.33;;;32.80;90.80;;;;;;5009945;28;20577;-60
2023/07/07 08:33:57;;;;;;;3.53;2.30;;;33.00;89.70;;;;;;5013866;28;20199;-60
2023/07/07 08:36:26;;;;;;;2.63;2.05;;;33.40;88.30;;;;;;5014582;28;20262;-60
2023/07/07 08:38:53;;;;;;;5.80;1.88;;;33.30;86.10;;;;;;5014516;28;20346;-61
2023/07/07 08:41:20;;;;;;;4.50;2.05;;;33.50;84.90;;;;;;5014787;28;20203;-60
2023/07/07 08:43:47;;;;;;;4.13;1.92;;;33.70;87.50;;;;;;5013142;28;20276;-61
2023/07/07 08:46:21;;;;;;;3.03;1.75;;;33.60;81.20;;;;;;5014249;28;20233;-61
2023/07/07 08:48:54;;;;;;;3.72;2.03;;;33.40;85.50;;;;;;5014431;28;20200;-61
2023/07/07 08:51:28;;;;;;;2.83;2.10;;;33.40;85.00;;;;;;5014434;28;20238;-60
2023/07/07 08:54:08;;;;;;;2.25;1.95;;;33.50;79.00;;;;;;5014255;28;20217;-60
2023/07/07 08:56:44;;;;;;;2.25;2.15;;;33.60;87.30;;;;;;5014225;28;20277;-61
2023/07/07 08:59:25;;;;;;;3.85;2.03;;;34.30;80.70;;;;;;5013207;28;20713;-61
2023/07/07 09:01:59;;;;;;;3.10;2.50;;;34.30;79.00;;;;;;5014055;28;20775;-60
2023/07/07 09:04:40;;;;;;;5.85;2.22;;;34.10;82.70;;;;;;5014263;28;20242;-60
2023/07/07 09:07:38;;;;;;;3.85;2.17;;;33.90;81.60;;;;;;5013895;28;20763;-60
2023/07/07 09:10:27;;;;;;;2.45;1.77;;;34.40;80.50;;;;;;5009170;28;20203;-61
2023/07/07 09:13:00;;;;;;;3.50;2.33;;;34.30;79.40;;;;;;5012946;28;20572;-61
2023/07/07 09:15:31;;;;;;;2.30;1.98;;;34.10;78.70;;;;;;5013244;28;20219;-61
2023/07/07 09:18:02;;;;;;;2.35;2.25;;;34.10;76.50;;;;;;5013540;28;20195;-61
2023/07/07 09:20:31;;;;;;;2.22;2.10;;;34.20;85.70;;;;;;5014110;28;20190;-61
2023/07/07 09:23:06;;;;;;;2.00;1.90;;;34.50;77.60;;;;;;5010184;28;20203;-62
2023/07/07 09:25:38;;;;;;;2.40;2.17;;;34.60;80.70;;;;;;5011807;28;20219;-61
2023/07/07 09:28:11;;;;;;;3.58;2.20;;;34.50;77.70;;;;;;5011828;28;20207;-64
2023/07/07 09:30:43;;;;;;;4.88;3.15;;;34.80;78.20;;;;;;5011654;28;20269;-64
2023/07/07 09:33:13;;;;;;;2.97;2.05;;;35.10;79.00;;;;;;5010268;28;20645;-64
2023/07/07 09:35:57;;;;;;;3.63;2.63;;;35.30;79.40;;;;;;5011401;28;20690;-68
2023/07/07 09:38:39;;;;;;;3.03;2.65;;;35.10;78.30;;;;;;5011442;28;20665;-59
2023/07/07 09:41:13;;;;;;;2.55;2.38;;;34.60;73.60;;;;;;5013296;28;20226;-62
2023/07/07 09:43:54;;;;;;;3.45;2.05;;;34.60;72.80;;;;;;5011918;28;20290;-59
2023/07/07 09:46:31;;;;;;;2.85;2.65;;;34.40;73.10;;;;;;5007555;28;20230;-59
2023/07/07 09:49:02;;;;;;;4.43;2.53;;;34.40;72.50;;;;;;5013299;28;20632;-67
2023/07/07 09:51:43;;;;;;;3.05;2.85;;;34.60;76.00;;;;;;5012083;28;20207;-70
2023/07/07 09:54:15;;;;;;;2.25;2.05;;;34.50;74.40;;;;;;5005169;28;20254;-59
2023/07/07 09:56:48;;;;;;;4.63;2.97;;;34.80;71.60;;;;;;5013007;28;20231;-61
2023/07/07 09:59:19;;;;;;;4.13;2.60;;;35.10;70.10;;;;;;5011586;28;20459;-61
2023/07/07 10:01:50;;;;;;;2.78;2.58;;;35.50;82.30;;;;;;5012985;28;20245;-62
2023/07/07 10:04:20;;;;;;;2.42;1.88;;;35.50;77.10;;;;;;5009819;28;20211;-62
2023/07/07 10:06:53;;;;;;;3.08;2.40;;;35.20;76.30;;;;;;5011863;28;20227;-63
2023/07/07 10:09:22;;;;;;;2.47;2.38;;;35.30;76.10;;;;;;5010669;28;21276;-60
2023/07/07 10:11:50;;;;;;;4.22;3.10;;;35.30;73.90;;;;;;5011099;28;20246;-59
2023/07/07 10:14:18;;;;;;;3.92;2.72;;;35.90;75.60;;;;;;5005934;28;20253;-60
2023/07/07 10:16:56;;;;;;;5.90;3.60;;;35.60;71.60;;;;;;5012642;28;20222;-61
2023/07/07 10:19:25;;;;;;;2.88;2.55;;;35.40;74.60;;;;;;5012612;28;20203;-62
2023/07/07 10:21:52;;;;;;;3.45;2.97;;;35.80;74.50;;;;;;5011180;28;20258;-61
2023/07/07 10:24:20;;;;;;;6.35;3.22;;;35.30;78.40;;;;;;5010050;28;20238;-62
2023/07/07 10:26:48;;;;;;;2.47;2.28;;;35.30;68.50;;;;;;5009127;28;20270;-62
2023/07/07 10:29:21;;;;;;;3.28;2.97;;;34.70;70.30;;;;;;5006547;28;20200;-65
2023/07/07 10:31:50;;;;;;;2.47;2.33;;;34.80;75.30;;;;;;5003516;28;20407;-65
2023/07/07 10:34:33;;;;;;;2.47;2.33;;;35.20;72.60;;;;;;4993804;28;20265;-60
2023/07/07 10:37:01;;;;;;;2.83;2.58;;;35.20;72.60;;;;;;5006588;28;20249;-60
2023/07/07 10:39:30;;;;;;;2.80;2.35;;;35.10;72.80;;;;;;5003593;28;20261;-60
2023/07/07 10:41:59;;;;;;;2.58;2.38;;;34.60;73.10;;;;;;5000664;28;20287;-60
2023/07/07 10:44:27;;;;;;;5.43;3.53;;;34.40;74.40;;;;;;4991755;28;20605;-60
2023/07/07 10:46:54;;;;;;;6.15;2.35;;;34.50;73.00;;;;;;4994457;28;20220;-60
2023/07/07 10:49:26;;;;;;;3.05;2.30;;;34.90;81.10;;;;;;4992538;28;20214;-60
2023/07/07 10:52:11;;;;;;;3.15;2.90;;;35.20;75.00;;;;;;4992993;28;20236;-60
2023/07/07 10:54:48;;;;;;;3.85;2.53;;;35.10;68.60;;;;;;5006773;28;20823;-60
2023/07/07 10:57:25;;;;;;;3.72;2.47;;;35.30;67.70;;;;;;4991745;28;20226;-60
2023/07/07 11:00:05;;;;;;;2.95;2.67;;;35.10;68.60;;;;;;4997393;28;20230;-60
2023/07/07 11:02:49;;;;;;;2.85;2.63;;;35.20;73.60;;;;;;5001502;28;20678;-60
2023/07/07 11:05:35;;;;;;;4.82;2.50;;;34.40;70.00;;;;;;5003663;28;20219;-66
2023/07/07 11:08:15;;;;;;;2.92;2.72;;;33.30;76.90;;;;;;5011879;28;20215;-64
2023/07/07 11:11:06;;;;;;;6.35;3.50;;;33.30;73.10;;;;;;5010929;28;20276;-64
2023/07/07 11:13:52;;;;;;;2.75;2.55;;;33.20;75.70;;;;;;5011667;28;20211;-66
2023/07/07 11:16:27;;;;;;;3.38;3.08;;;33.30;80.40;;;;;;5008956;28;20227;-67
2023/07/07 11:19:07;;;;;;;3.22;3.03;;;32.80;72.80;;;;;;5005733;28;20207;-65
2023/07/07 11:21:44;;;;;;;2.75;2.55;;;33.00;74.70;;;;;;4999065;28;20253;-68
2023/07/07 11:24:14;;;;;;;3.33;2.85;;;32.80;70.00;;;;;;4996399;28;20564;-64
2023/07/07 11:26:55;;;;;;;5.97;2.97;;;32.70;74.30;;;;;;4991892;28;20252;-62
2023/07/07 11:29:30;;;;;;;5.00;2.80;;;32.70;77.70;;;;;;4995116;28;20199;-65
2023/07/07 11:32:10;;;;;;;3.55;3.10;;;32.70;76.90;;;;;;4998110;28;20594;-67
2023/07/07 11:34:57;;;;;;;4.38;2.53;;;32.70;75.20;;;;;;4993696;28;20207;-63
2023/07/07 11:37:40;;;;;;;6.47;2.88;;;32.40;73.00;;;;;;5010341;28;20979;-64
2023/07/07 11:40:23;;;;;;;4.43;2.95;;;31.90;73.50;;;;;;5003421;28;20249;-65
2023/07/07 11:43:11;;;;;;;4.68;3.88;;;31.50;79.10;;;;;;5009890;28;20250;-64
2023/07/07 11:45:54;;;;;;;5.45;3.15;;;31.10;79.40;;;;;;5006552;28;20231;-61
2023/07/07 11:48:31;;;;;;;3.13;2.83;;;31.20;85.00;;;;;;5003853;28;20278;-61
2023/07/07 11:51:15;;;;;;;4.07;3.10;;;31.30;78.60;;;;;;5009492;28;20195;-61
2023/07/07 11:54:04;;;;;;;7.43;2.85;;;31.20;78.10;;;;;;5006059;28;20199;-62
2023/07/07 11:56:46;;;;;;;3.72;2.92;;;30.90;76.80;;;;;;5006426;28;20652;-62
2023/07/07 11:59:28;;;;;;;3.78;3.05;;;31.00;75.90;;;;;;5000887;28;20250;-63
2023/07/07 12:01:58;;;;;;;3.42;2.50;;;31.10;80.50;;;;;;4992299;28;20195;-61
2023/07/07 12:04:29;;;;;;;5.05;2.83;;;31.20;80.20;;;;;;5001581;28;20235;-60
2023/07/07 12:07:01;;;;;;;5.25;3.28;;;31.20;81.30;;;;;;4993462;28;20278;-58
2023/07/07 12:09:37;;;;;;;3.35;3.15;;;31.00;82.60;;;;;;4998366;28;20819;-60
2023/07/07 12:12:10;;;;;;;3.47;2.97;;;31.00;78.10;;;;;;5003626;28;20213;-60
2023/07/07 12:14:44;;;;;;;4.75;2.45;;;31.00;81.80;;;;;;5009550;28;20207;-60
2023/07/07 12:17:18;;;;;;;5.80;2.80;;;30.80;76.80;;;;;;5013273;28;20196;-59
2023/07/07 12:19:48;;;;;;;5.78;3.10;;;30.70;80.20;;;;;;5013074;28;20269;-60
2023/07/07 12:22:19;;;;;;;5.70;2.95;;;30.80;82.00;;;;;;5000219;28;20626;-57
2023/07/07 12:24:56;;;;;;;4.18;2.92;;;30.70;78.10;;;;;;4995205;28;20254;-59
2023/07/07 12:27:27;;;;;;;4.88;3.08;;;30.70;80.00;;;;;;5011607;28;20709;-62
2023/07/07 12:29:56;;;;;;;7.18;3.55;;;30.60;80.00;;;;;;5012999;28;20207;-60
2023/07/07 12:32:25;;;;;;;4.43;3.92;;;30.60;78.30;;;;;;5013074;28;20469;-60
2023/07/07 12:35:06;;;;;;;3.67;2.42;;;30.60;81.10;;;;;;5014647;28;20246;-61
2023/07/07 12:37:37;;;;;;;3.67;2.35;;;30.60;78.80;;;;;;5013707;28;20199;-60
2023/07/07 12:40:16;;;;;;;4.20;2.88;;;30.30;78.60;;;;;;5012639;28;20257;-60
2023/07/07 12:42:44;;;;;;;7.20;3.08;;;30.20;82.70;;;;;;5010051;28;20636;-60
2023/07/07 12:45:19;;;;;;;8.05;2.63;;;30.30;77.50;;;;;;5014148;28;20253;-60
2023/07/07 12:47:58;;;;;;;4.38;2.53;;;30.30;75.50;;;;;;5013012;28;20215;-60
2023/07/07 12:50:28;;;;;;;2.47;2.28;;;30.30;78.40;;;;;;5049727;23;20226;-54
2023/07/07 12:53:01;;;;;;;7.43;2.92;;;30.30;76.20;;;;;;5033643;28;20672;-54
2023/07/07 12:55:29;;;;;;;2.95;2.45;;;30.20;78.20;;;;;;5034150;28;20247;-54
2023/07/07 12:58:21;;;;;;;5.63;2.88;;;30.30;79.40;;;;;;5033094;28;20199;-51
2023/07/07 13:00:48;;;;;;;4.30;3.05;;;30.40;71.70;;;;;;5034305;28;20229;-51
2023/07/07 13:03:20;;;;;;;4.38;3.28;;;30.40;73.50;;;;;;5033767;28;20587;-51
2023/07/07 13:05:49;;;;;;;4.13;3.03;;;30.30;74.50;;;;;;5034409;28;20260;-51
2023/07/07 13:08:35;;;;;;;8.25;3.17;;;30.30;73.50;;;;;;5028455;28;20761;-51